Time;durP1;ratioP1;P1;durP2;ratioP2;P2;SDS_P1;SDS_P2;PMS_P1;PMS_P2;Temp;Humidity;BMP_temperature;BMP_pressure;BME280_temperature;BME280_humidity;BME280_pressure;Samples;Min_cycle;Max_cycle;Signal;HPM_P1;HPM_P2
2023/07/24 00:00:26;;;;;;;1.58;1.48;;;19.90;93.40;;;;;;5051999;28;20028;-68
2023/07/24 00:02:53;;;;;;;1.30;1.20;;;19.90;93.30;;;;;;5051808;28;20033;-68
2023/07/24 00:05:19;;;;;;;2.00;1.60;;;19.90;93.30;;;;;;5051832;28;20104;-68
2023/07/24 00:07:45;;;;;;;1.92;1.73;;;19.80;93.30;;;;;;5051017;28;20490;-68
2023/07/24 00:10:10;;;;;;;1.70;1.60;;;19.90;93.40;;;;;;5051626;28;20027;-68
2023/07/24 00:12:36;;;;;;;1.75;1.63;;;19.80;93.40;;;;;;5051791;28;20017;-67
2023/07/24 00:15:01;;;;;;;1.60;1.50;;;19.80;93.30;;;;;;5050488;28;20029;-68
2023/07/24 00:17:27;;;;;;;1.50;1.40;;;19.80;93.40;;;;;;5051630;28;20090;-67
2023/07/24 00:19:53;;;;;;;2.58;1.90;;;19.80;93.30;;;;;;5051487;28;20040;-67
2023/07/24 00:22:18;;;;;;;3.05;1.83;;;19.80;93.30;;;;;;5051407;28;20024;-68
2023/07/24 00:24:44;;;;;;;1.73;1.63;;;19.80;93.30;;;;;;5051303;28;20533;-68
2023/07/24 00:27:09;;;;;;;2.58;1.50;;;19.80;93.30;;;;;;5051780;28;20103;-68
2023/07/24 00:29:35;;;;;;;1.92;1.80;;;19.80;93.30;;;;;;5051197;28;20029;-68
2023/07/24 00:32:01;;;;;;;2.42;1.73;;;19.80;93.40;;;;;;5051477;28;20028;-68
2023/07/24 00:34:26;;;;;;;1.80;1.60;;;19.80;93.40;;;;;;5051049;28;20091;-67
2023/07/24 00:36:52;;;;;;;1.70;1.60;;;19.80;93.30;;;;;;5050922;28;20025;-68
2023/07/24 00:39:17;;;;;;;2.10;1.63;;;19.80;93.30;;;;;;5051306;28;20040;-68
2023/07/24 00:41:43;;;;;;;2.38;1.95;;;19.80;93.30;;;;;;5051117;28;20060;-68
2023/07/24 00:44:09;;;;;;;2.03;1.83;;;19.80;93.30;;;;;;5051284;28;20514;-68
2023/07/24 00:46:35;;;;;;;2.40;1.90;;;19.80;93.30;;;;;;5050955;28;20104;-68
2023/07/24 00:49:02;;;;;;;2.28;2.00;;;19.70;93.30;;;;;;5050960;28;20079;-68
2023/07/24 00:51:28;;;;;;;2.05;1.83;;;19.70;93.60;;;;;;5050888;28;20043;-68
2023/07/24 00:53:59;;;;;;;3.22;2.00;;;19.70;93.30;;;;;;5051063;28;20523;-68
2023/07/24 00:56:26;;;;;;;2.42;1.98;;;19.70;93.40;;;;;;5051174;28;20638;-68
2023/07/24 00:58:52;;;;;;;2.72;1.85;;;19.70;93.30;;;;;;5050715;28;20036;-68
2023/07/24 01:01:18;;;;;;;1.60;1.50;;;19.70;93.30;;;;;;5049839;28;20171;-68
2023/07/24 01:03:44;;;;;;;2.22;1.80;;;19.70;93.30;;;;;;5050594;28;20052;-68
2023/07/24 01:06:10;;;;;;;2.13;1.88;;;19.70;93.30;;;;;;5050664;28;20029;-68
2023/07/24 01:08:36;;;;;;;2.17;1.70;;;19.70;93.30;;;;;;5050651;28;20028;-68
2023/07/24 01:11:14;;;;;;;3.08;1.67;;;19.70;93.30;;;;;;5050749;28;20114;-68
2023/07/24 01:13:44;;;;;;;2.58;1.95;;;19.60;93.30;;;;;;5050639;28;20021;-68
2023/07/24 01:16:14;;;;;;;2.58;1.73;;;19.60;93.40;;;;;;5050311;28;20027;-68
2023/07/24 01:18:40;;;;;;;2.13;1.60;;;19.60;93.50;;;;;;5050379;28;20506;-68
2023/07/24 01:21:09;;;;;;;1.77;1.65;;;19.60;93.50;;;;;;5050544;28;20066;-68
2023/07/24 01:23:58;;;;;;;1.95;1.60;;;19.60;93.50;;;;;;5050483;28;20108;-68
2023/07/24 01:26:25;;;;;;;2.50;2.20;;;19.60;93.50;;;;;;5050313;28;20025;-68
2023/07/24 01:28:50;;;;;;;2.50;1.83;;;19.60;93.50;;;;;;5050197;28;20032;-68
2023/07/24 01:31:17;;;;;;;2.10;1.80;;;19.70;93.50;;;;;;5050308;28;20021;-68
2023/07/24 01:33:43;;;;;;;2.85;2.00;;;19.70;93.60;;;;;;5050227;28;20021;-68
2023/07/24 01:36:10;;;;;;;2.53;2.00;;;19.70;93.60;;;;;;5050122;28;20071;-68
2023/07/24 01:38:36;;;;;;;2.75;2.38;;;19.60;93.60;;;;;;5050277;28;20025;-68
2023/07/24 01:41:05;;;;;;;2.63;2.33;;;19.60;93.70;;;;;;5050198;28;20056;-68
2023/07/24 01:43:32;;;;;;;3.50;2.30;;;19.60;93.70;;;;;;5050059;28;20021;-67
2023/07/24 01:45:57;;;;;;;2.45;2.22;;;19.60;93.70;;;;;;5050134;28;20069;-68
2023/07/24 01:48:23;;;;;;;3.30;2.85;;;19.60;93.70;;;;;;5050069;28;20017;-68
2023/07/24 01:50:49;;;;;;;2.90;2.60;;;19.60;93.70;;;;;;5048862;28;20533;-68
2023/07/24 01:53:15;;;;;;;2.67;2.45;;;19.60;93.70;;;;;;5050187;28;20492;-68
2023/07/24 01:55:41;;;;;;;3.33;2.70;;;19.60;93.70;;;;;;5050349;28;20038;-68
2023/07/24 01:58:06;;;;;;;3.28;2.80;;;19.60;93.70;;;;;;5048670;28;20054;-68
2023/07/24 02:00:32;;;;;;;3.22;2.90;;;19.60;93.70;;;;;;5050284;28;20029;-68
2023/07/24 02:02:57;;;;;;;2.47;2.28;;;19.60;93.80;;;;;;5049813;28;20072;-67
2023/07/24 02:05:23;;;;;;;2.60;2.30;;;19.60;93.70;;;;;;5049960;28;20438;-68
2023/07/24 02:07:49;;;;;;;3.58;2.67;;;19.60;93.80;;;;;;5049257;28;20118;-67
2023/07/24 02:10:14;;;;;;;3.17;2.72;;;19.60;93.80;;;;;;5048981;28;20495;-68
2023/07/24 02:12:41;;;;;;;4.53;3.08;;;19.60;93.80;;;;;;5031636;28;20048;-68
2023/07/24 02:15:07;;;;;;;3.60;2.78;;;19.50;93.90;;;;;;5049599;28;20032;-68
2023/07/24 02:17:32;;;;;;;2.63;2.42;;;19.50;93.90;;;;;;5049802;28;20052;-68
2023/07/24 02:19:58;;;;;;;3.13;2.53;;;19.60;93.90;;;;;;5049611;28;20056;-68
2023/07/24 02:22:24;;;;;;;3.00;2.70;;;19.60;93.80;;;;;;5049738;28;20035;-68
2023/07/24 02:24:49;;;;;;;2.80;2.55;;;19.60;93.80;;;;;;5049620;28;20083;-68
2023/07/24 02:27:28;;;;;;;4.38;2.92;;;19.60;93.80;;;;;;5049673;28;20071;-68
2023/07/24 02:29:54;;;;;;;3.13;2.72;;;19.60;93.80;;;;;;5031551;28;20029;-68
2023/07/24 02:32:22;;;;;;;3.70;2.90;;;19.60;93.80;;;;;;5052484;28;20099;-68
2023/07/24 02:34:52;;;;;;;3.35;2.85;;;19.60;93.90;;;;;;5053656;28;20017;-68
2023/07/24 02:37:17;;;;;;;3.25;2.50;;;19.60;93.90;;;;;;5053593;28;20032;-68
2023/07/24 02:39:43;;;;;;;3.58;2.60;;;19.60;93.80;;;;;;5053252;28;20033;-68
2023/07/24 02:42:08;;;;;;;3.35;2.80;;;19.70;93.90;;;;;;5053494;28;20397;-68
2023/07/24 02:44:35;;;;;;;3.25;2.85;;;19.60;93.80;;;;;;5053430;28;20029;-68
2023/07/24 02:47:00;;;;;;;2.80;2.60;;;19.60;93.90;;;;;;5053311;28;20036;-68
2023/07/24 02:49:26;;;;;;;3.20;2.50;;;19.70;93.90;;;;;;5053054;28;20033;-68
2023/07/24 02:51:51;;;;;;;4.45;2.70;;;19.70;93.80;;;;;;5053156;28;20017;-68
2023/07/24 02:54:17;;;;;;;3.80;2.80;;;19.70;93.80;;;;;;5053140;28;20036;-68
2023/07/24 02:56:42;;;;;;;3.47;2.63;;;19.70;93.80;;;;;;5053360;28;20013;-68
2023/07/24 02:59:08;;;;;;;3.45;2.72;;;19.70;93.80;;;;;;5053209;28;20049;-68
2023/07/24 03:01:33;;;;;;;3.20;2.90;;;19.70;93.80;;;;;;5052929;28;20025;-68
2023/07/24 03:03:59;;;;;;;3.70;2.67;;;19.70;93.90;;;;;;5053482;28;20383;-68
2023/07/24 03:06:25;;;;;;;3.15;2.40;;;19.70;93.90;;;;;;5053270;28;20033;-68
2023/07/24 03:08:51;;;;;;;2.85;2.40;;;19.70;93.90;;;;;;5052994;28;20017;-68
2023/07/24 03:11:17;;;;;;;3.72;2.67;;;19.70;93.90;;;;;;5052949;28;20035;-68
2023/07/24 03:13:43;;;;;;;2.90;2.50;;;19.70;93.90;;;;;;5052825;28;20021;-68
2023/07/24 03:16:08;;;;;;;3.03;2.45;;;19.70;93.90;;;;;;5052798;28;20144;-68
2023/07/24 03:18:34;;;;;;;3.88;2.70;;;19.70;94.00;;;;;;5052627;28;20539;-68
2023/07/24 03:20:59;;;;;;;3.17;2.80;;;19.70;94.00;;;;;;5052819;28;20307;-68
2023/07/24 03:23:25;;;;;;;5.25;3.47;;;19.70;94.00;;;;;;5052445;28;20480;-68
2023/07/24 03:25:51;;;;;;;3.45;2.70;;;19.70;94.00;;;;;;5052753;28;20024;-68
2023/07/24 03:28:16;;;;;;;4.20;3.10;;;19.70;94.00;;;;;;5052481;28;20029;-68
2023/07/24 03:30:42;;;;;;;2.95;2.42;;;19.70;94.00;;;;;;5052447;28;20029;-68
2023/07/24 03:33:07;;;;;;;4.25;3.05;;;19.80;94.00;;;;;;5034767;28;20040;-68
2023/07/24 03:35:33;;;;;;;3.72;3.10;;;19.70;93.90;;;;;;5034361;28;20085;-68
2023/07/24 03:37:59;;;;;;;3.53;3.08;;;19.70;93.90;;;;;;5052390;28;20068;-68
2023/07/24 03:40:24;;;;;;;4.10;3.08;;;19.70;93.90;;;;;;5052365;28;20032;-68
2023/07/24 03:42:50;;;;;;;4.22;3.35;;;19.60;94.00;;;;;;5051137;28;20036;-68
2023/07/24 03:45:15;;;;;;;3.28;2.63;;;19.60;94.10;;;;;;5052133;28;20096;-68
2023/07/24 03:47:41;;;;;;;3.35;2.63;;;19.70;94.10;;;;;;5052374;28;20021;-69
2023/07/24 03:50:07;;;;;;;3.65;2.90;;;19.70;94.10;;;;;;5034097;28;20029;-68
2023/07/24 03:52:32;;;;;;;3.75;2.75;;;19.60;94.00;;;;;;5052271;28;20499;-68
2023/07/24 03:54:58;;;;;;;4.65;3.88;;;19.70;94.10;;;;;;5052053;28;20292;-68
2023/07/24 03:57:23;;;;;;;6.18;4.47;;;19.60;94.10;;;;;;5024312;28;20017;-68
2023/07/24 03:59:49;;;;;;;4.93;4.30;;;19.60;94.20;;;;;;5053746;28;20028;-68
2023/07/24 04:02:15;;;;;;;4.13;3.70;;;19.50;94.20;;;;;;5054640;28;20488;-68
2023/07/24 04:04:40;;;;;;;5.18;4.25;;;19.50;94.30;;;;;;5050305;28;20491;-67
2023/07/24 04:07:06;;;;;;;4.25;3.60;;;19.50;94.30;;;;;;5051297;28;20025;-68
2023/07/24 04:09:32;;;;;;;3.63;3.28;;;19.50;94.30;;;;;;5051542;28;20391;-67
2023/07/24 04:11:57;;;;;;;5.47;4.22;;;19.50;94.40;;;;;;5051461;28;20032;-68
2023/07/24 04:14:23;;;;;;;4.57;3.92;;;19.40;94.30;;;;;;5045584;28;20025;-68
2023/07/24 04:16:48;;;;;;;5.18;4.00;;;19.40;94.40;;;;;;5017116;28;20094;-69
2023/07/24 04:19:14;;;;;;;4.45;3.97;;;19.30;94.40;;;;;;5051616;28;20021;-68
2023/07/24 04:21:39;;;;;;;5.28;4.78;;;19.30;94.50;;;;;;5051385;28;20029;-68
2023/07/24 04:24:05;;;;;;;5.88;4.20;;;19.30;94.50;;;;;;5050937;28;20099;-69
2023/07/24 04:26:31;;;;;;;7.05;4.53;;;19.30;94.60;;;;;;5051141;28;20093;-68
2023/07/24 04:28:56;;;;;;;4.20;3.80;;;19.30;94.70;;;;;;5050912;28;20033;-68
2023/07/24 04:31:22;;;;;;;4.57;3.95;;;19.20;94.60;;;;;;5050380;28;20021;-68
2023/07/24 04:33:47;;;;;;;4.65;3.53;;;19.20;94.70;;;;;;5031091;28;20022;-68
2023/07/24 04:36:13;;;;;;;4.80;4.03;;;19.20;94.80;;;;;;5030534;28;20823;-68
2023/07/24 04:38:39;;;;;;;4.10;3.70;;;19.20;94.80;;;;;;5031452;28;20500;-68
2023/07/24 04:41:04;;;;;;;5.93;4.47;;;19.20;94.90;;;;;;5013463;28;20029;-68
2023/07/24 04:43:30;;;;;;;5.18;3.60;;;19.20;94.80;;;;;;5013516;28;20071;-68
2023/07/24 04:45:55;;;;;;;3.85;3.45;;;19.10;94.80;;;;;;5031072;28;20014;-68
2023/07/24 04:48:21;;;;;;;3.92;3.53;;;19.20;94.70;;;;;;5031223;28;20026;-68
2023/07/24 04:50:47;;;;;;;4.18;3.75;;;19.20;94.70;;;;;;5031032;28;20446;-68
2023/07/24 04:53:12;;;;;;;4.68;4.20;;;19.30;94.60;;;;;;5031056;28;20096;-68
2023/07/24 04:55:38;;;;;;;4.95;4.20;;;19.30;94.60;;;;;;5030845;28;20026;-68
2023/07/24 04:58:03;;;;;;;4.80;4.30;;;19.20;94.60;;;;;;5031010;28;20021;-68
2023/07/24 05:00:29;;;;;;;4.95;3.60;;;19.30;94.60;;;;;;5030989;28;20033;-68
2023/07/24 05:02:54;;;;;;;5.40;3.75;;;19.20;94.60;;;;;;5030977;28;20025;-68
2023/07/24 05:05:20;;;;;;;3.92;3.53;;;19.20;94.60;;;;;;5030719;28;20077;-68
2023/07/24 05:07:46;;;;;;;4.82;4.10;;;19.30;94.60;;;;;;5030885;28;20029;-69
2023/07/24 05:10:13;;;;;;;5.50;4.82;;;19.30;94.50;;;;;;5030698;28;20029;-68
2023/07/24 05:12:41;;;;;;;5.07;4.32;;;19.30;94.50;;;;;;5030616;28;20049;-68
2023/07/24 05:15:07;;;;;;;6.70;4.80;;;19.20;94.50;;;;;;5030797;28;20063;-68
2023/07/24 05:17:33;;;;;;;5.70;4.95;;;19.20;94.50;;;;;;5030683;28;20468;-68
2023/07/24 05:19:58;;;;;;;5.88;4.63;;;19.20;94.50;;;;;;5031012;28;20021;-68
2023/07/24 05:22:25;;;;;;;5.72;4.32;;;19.20;94.50;;;;;;5030475;28;20037;-68
2023/07/24 05:24:50;;;;;;;4.28;3.75;;;19.20;94.50;;;;;;5030669;28;20320;-68
2023/07/24 05:27:16;;;;;;;5.80;4.68;;;19.20;94.50;;;;;;5030807;28;20034;-69
2023/07/24 05:29:41;;;;;;;5.38;4.47;;;19.20;94.40;;;;;;5030302;28;20492;-68
2023/07/24 05:32:07;;;;;;;4.85;4.18;;;19.20;94.40;;;;;;5012742;28;20033;-68
2023/07/24 05:34:32;;;;;;;5.35;4.57;;;19.20;94.40;;;;;;5018216;28;20020;-68
2023/07/24 05:36:58;;;;;;;6.38;5.20;;;19.20;94.40;;;;;;5049523;28;20475;-68
2023/07/24 05:39:24;;;;;;;5.80;5.20;;;19.20;94.30;;;;;;5049890;28;20029;-68
2023/07/24 05:41:49;;;;;;;6.97;5.68;;;19.20;94.30;;;;;;5050103;28;20495;-68
2023/07/24 05:44:15;;;;;;;6.10;5.40;;;19.20;94.30;;;;;;5049679;28;20020;-68
2023/07/24 05:46:40;;;;;;;6.13;5.53;;;19.20;94.20;;;;;;5050434;28;20025;-68
2023/07/24 05:49:06;;;;;;;6.13;5.30;;;19.20;94.20;;;;;;5049988;28;20040;-68
2023/07/24 05:51:31;;;;;;;5.10;4.50;;;19.20;94.20;;;;;;5049980;28;20036;-68
2023/07/24 05:53:57;;;;;;;5.95;5.00;;;19.30;94.10;;;;;;5049920;28;20082;-68
2023/07/24 05:56:23;;;;;;;5.82;5.22;;;19.30;94.00;;;;;;5049648;28;20476;-68
2023/07/24 05:58:50;;;;;;;6.55;5.32;;;19.30;94.00;;;;;;5049734;28;20028;-68
2023/07/24 06:01:15;;;;;;;6.93;5.80;;;19.30;93.90;;;;;;5049910;28;20044;-68
2023/07/24 06:03:41;;;;;;;6.57;5.50;;;19.30;93.90;;;;;;5082133;28;20472;-68
2023/07/24 06:06:06;;;;;;;7.22;5.80;;;19.30;93.90;;;;;;5049093;28;20025;-68
2023/07/24 06:08:32;;;;;;;6.68;5.07;;;19.30;93.90;;;;;;5049878;28;20036;-68
2023/07/24 06:10:58;;;;;;;6.00;5.15;;;19.30;93.80;;;;;;5049775;28;20121;-68
2023/07/24 06:13:23;;;;;;;5.78;5.18;;;19.30;93.80;;;;;;5049631;28;20036;-68
2023/07/24 06:15:50;;;;;;;6.28;5.28;;;19.40;93.80;;;;;;5049775;28;20097;-68
2023/07/24 06:18:15;;;;;;;6.63;5.53;;;19.40;93.70;;;;;;5049511;28;20025;-68
2023/07/24 06:20:41;;;;;;;6.18;4.82;;;19.40;94.00;;;;;;5049817;28;20100;-68
2023/07/24 06:23:07;;;;;;;5.70;4.68;;;19.40;93.70;;;;;;5049674;28;20555;-68
2023/07/24 06:25:32;;;;;;;6.85;5.55;;;19.40;93.60;;;;;;5050042;28;20028;-68
2023/07/24 06:27:58;;;;;;;6.10;4.93;;;19.40;93.60;;;;;;5049619;28;20541;-68
2023/07/24 06:30:25;;;;;;;6.45;5.50;;;19.30;93.60;;;;;;5049802;28;20041;-69
2023/07/24 06:32:51;;;;;;;8.85;6.43;;;19.30;93.60;;;;;;5049672;28;20037;-69
2023/07/24 06:35:16;;;;;;;8.02;5.97;;;19.30;93.50;;;;;;5049694;28;20425;-69
2023/07/24 06:37:42;;;;;;;7.55;5.97;;;19.30;93.50;;;;;;5049652;28;20104;-69
2023/07/24 06:40:08;;;;;;;7.53;5.70;;;19.30;93.40;;;;;;5049792;28;20056;-69
2023/07/24 06:42:34;;;;;;;7.82;5.82;;;19.70;93.20;;;;;;5049738;28;20029;-69
2023/07/24 06:44:59;;;;;;;7.63;5.90;;;20.00;92.90;;;;;;5049894;28;20535;-69
2023/07/24 06:47:25;;;;;;;6.55;5.45;;;20.30;92.50;;;;;;5049674;28;20025;-69
2023/07/24 06:49:51;;;;;;;7.47;5.95;;;20.40;92.00;;;;;;5049537;28;20036;-69
2023/07/24 06:52:16;;;;;;;9.57;5.95;;;20.40;91.70;;;;;;5049612;28;20101;-69
2023/07/24 06:54:42;;;;;;;7.25;5.20;;;20.30;91.70;;;;;;5049576;28;20032;-69
2023/07/24 06:57:08;;;;;;;7.78;5.63;;;20.30;91.80;;;;;;5049665;28;20025;-69
2023/07/24 06:59:33;;;;;;;6.97;5.00;;;20.20;91.90;;;;;;5049536;28;20032;-68
2023/07/24 07:01:59;;;;;;;7.85;6.75;;;20.10;92.00;;;;;;5043975;28;20029;-69
2023/07/24 07:04:24;;;;;;;6.85;5.68;;;20.00;92.00;;;;;;5045619;28;20052;-69
2023/07/24 07:06:50;;;;;;;7.55;6.72;;;20.00;92.10;;;;;;5047892;28;20021;-69
2023/07/24 07:09:15;;;;;;;7.93;6.93;;;20.10;92.30;;;;;;5043210;28;20025;-69
2023/07/24 07:11:43;;;;;;;7.38;5.90;;;20.10;92.00;;;;;;5037742;28;20041;-69
2023/07/24 07:14:09;;;;;;;11.35;9.02;;;20.30;91.90;;;;;;5039177;28;20016;-69
2023/07/24 07:16:35;;;;;;;7.63;6.60;;;20.40;91.50;;;;;;5030054;28;20017;-69
2023/07/24 07:19:00;;;;;;;8.60;7.32;;;20.50;91.30;;;;;;5041765;28;20476;-68
2023/07/24 07:21:26;;;;;;;8.25;6.88;;;20.80;91.10;;;;;;5043125;28;20311;-69
2023/07/24 07:23:52;;;;;;;7.15;6.40;;;20.90;90.70;;;;;;5042680;28;20022;-69
2023/07/24 07:26:17;;;;;;;8.15;7.20;;;20.80;90.50;;;;;;5041256;28;20025;-69
2023/07/24 07:28:44;;;;;;;7.85;6.68;;;20.60;90.50;;;;;;5042957;28;20029;-69
2023/07/24 07:31:10;;;;;;;7.40;6.60;;;20.50;90.50;;;;;;5048812;28;20024;-68
2023/07/24 07:33:36;;;;;;;7.70;6.18;;;20.40;90.60;;;;;;5052144;28;20025;-69
2023/07/24 07:36:03;;;;;;;8.05;6.65;;;20.40;90.70;;;;;;5051455;28;20036;-69
2023/07/24 07:38:29;;;;;;;7.90;6.93;;;20.40;90.90;;;;;;5041948;28;20068;-69
2023/07/24 07:40:54;;;;;;;8.45;7.07;;;20.50;90.90;;;;;;5046513;28;20052;-69
2023/07/24 07:43:20;;;;;;;7.53;6.70;;;20.60;90.80;;;;;;5049896;28;20388;-69
2023/07/24 07:45:47;;;;;;;7.88;6.70;;;20.70;90.70;;;;;;5051684;28;20061;-69
2023/07/24 07:48:12;;;;;;;7.65;6.75;;;20.70;90.60;;;;;;5050279;28;20032;-69
2023/07/24 07:50:38;;;;;;;10.15;8.20;;;20.70;90.40;;;;;;5051616;28;20053;-68
2023/07/24 07:53:03;;;;;;;7.45;6.65;;;20.70;90.20;;;;;;5047193;28;20021;-69
2023/07/24 07:55:29;;;;;;;9.60;7.03;;;20.60;90.10;;;;;;5049506;28;20484;-69
2023/07/24 07:57:55;;;;;;;8.57;6.68;;;20.70;90.20;;;;;;5049036;28;20028;-69
2023/07/24 08:00:20;;;;;;;8.60;7.68;;;20.80;90.10;;;;;;5043608;28;20100;-69
2023/07/24 08:02:46;;;;;;;9.82;7.53;;;21.00;89.90;;;;;;5047813;28;20040;-69
2023/07/24 08:05:12;;;;;;;11.13;7.65;;;21.30;88.80;;;;;;5049606;28;20036;-69
2023/07/24 08:07:37;;;;;;;10.25;8.73;;;21.40;88.10;;;;;;5050009;28;20127;-69
2023/07/24 08:10:03;;;;;;;9.73;7.95;;;21.30;87.00;;;;;;5032222;28;20026;-69
2023/07/24 08:12:29;;;;;;;8.98;7.57;;;21.00;86.70;;;;;;5053930;28;20031;-69
2023/07/24 08:14:56;;;;;;;8.25;6.40;;;20.80;87.40;;;;;;5055460;28;20674;-68
2023/07/24 08:17:22;;;;;;;8.50;7.10;;;20.60;88.10;;;;;;5035915;28;20086;-68
2023/07/24 08:19:47;;;;;;;8.20;6.88;;;20.50;88.70;;;;;;5051558;28;20479;-68
2023/07/24 08:22:13;;;;;;;8.98;7.18;;;20.50;89.10;;;;;;5053933;28;20029;-68
2023/07/24 08:24:38;;;;;;;7.45;6.38;;;20.40;89.40;;;;;;5054906;28;20029;-68
2023/07/24 08:27:04;;;;;;;8.55;7.03;;;20.60;89.80;;;;;;5036290;28;20033;-69
2023/07/24 08:29:30;;;;;;;9.23;8.15;;;20.80;89.80;;;;;;5054604;28;20021;-69
2023/07/24 08:31:55;;;;;;;11.57;9.45;;;21.00;89.50;;;;;;5055522;28;20369;-69
2023/07/24 08:34:21;;;;;;;10.32;7.72;;;21.20;88.90;;;;;;5054647;28;20021;-69
2023/07/24 08:36:46;;;;;;;10.05;8.20;;;21.40;88.10;;;;;;5052213;28;20025;-69
2023/07/24 08:39:12;;;;;;;10.23;8.50;;;21.50;87.20;;;;;;5059423;28;20039;-69
2023/07/24 08:41:38;;;;;;;10.65;8.18;;;21.50;87.20;;;;;;5041084;28;20041;-69
2023/07/24 08:44:10;;;;;;;8.48;7.57;;;21.40;86.40;;;;;;5055091;28;20060;-69
2023/07/24 08:46:41;;;;;;;9.27;8.18;;;21.40;86.00;;;;;;5034278;28;20094;-69
2023/07/24 08:49:13;;;;;;;10.80;8.10;;;21.30;86.00;;;;;;5051078;28;20037;-69
2023/07/24 08:51:41;;;;;;;8.75;7.43;;;21.40;85.70;;;;;;5049877;28;20032;-69
2023/07/24 08:54:07;;;;;;;10.30;8.15;;;21.40;85.90;;;;;;5049298;28;20025;-69
2023/07/24 08:56:33;;;;;;;8.55;7.65;;;21.40;85.70;;;;;;5047492;28;20025;-69
2023/07/24 08:58:58;;;;;;;9.23;7.80;;;21.50;85.80;;;;;;5049068;28;20048;-69
2023/07/24 09:01:25;;;;;;;8.98;8.00;;;21.70;85.30;;;;;;5049483;28;20025;-69
2023/07/24 09:03:50;;;;;;;9.80;7.85;;;21.80;84.00;;;;;;5042237;28;20026;-69
2023/07/24 09:06:16;;;;;;;8.55;7.32;;;21.80;82.50;;;;;;5050343;28;20198;-69
2023/07/24 09:08:43;;;;;;;7.00;6.28;;;21.90;82.50;;;;;;5050869;28;20025;-69
2023/07/24 09:11:10;;;;;;;8.23;6.85;;;22.00;82.50;;;;;;5051331;28;20066;-69
2023/07/24 09:13:37;;;;;;;7.00;6.30;;;22.20;82.60;;;;;;5067546;28;20028;-68
2023/07/24 09:16:03;;;;;;;8.43;7.25;;;22.30;82.00;;;;;;5054591;28;20048;-69
2023/07/24 09:18:43;;;;;;;9.07;6.85;;;22.30;80.90;;;;;;5061401;28;20543;-69
2023/07/24 09:21:09;;;;;;;7.10;6.05;;;22.30;80.30;;;;;;5050644;28;20033;-69
2023/07/24 09:23:35;;;;;;;7.00;5.70;;;22.20;79.50;;;;;;5049374;28;20029;-70
2023/07/24 09:26:06;;;;;;;7.75;6.53;;;22.30;79.80;;;;;;5049395;28;20021;-69
2023/07/24 09:28:33;;;;;;;5.57;5.03;;;22.40;79.40;;;;;;5049670;28;20031;-69
2023/07/24 09:31:02;;;;;;;7.72;6.75;;;22.50;79.40;;;;;;5050110;28;20037;-69
2023/07/24 09:33:39;;;;;;;7.07;6.38;;;22.40;78.70;;;;;;5034892;28;20131;-69
2023/07/24 09:36:10;;;;;;;7.97;6.45;;;22.40;78.80;;;;;;5050302;28;20103;-69
2023/07/24 09:38:37;;;;;;;7.10;6.23;;;22.50;78.40;;;;;;5053484;28;20112;-69
2023/07/24 09:41:03;;;;;;;7.85;7.05;;;22.60;77.90;;;;;;5048441;28;20362;-69
2023/07/24 09:43:29;;;;;;;7.93;6.32;;;22.80;77.30;;;;;;5051743;28;20017;-69
2023/07/24 09:45:56;;;;;;;6.88;5.97;;;22.70;76.20;;;;;;5049445;28;20503;-69
2023/07/24 09:48:24;;;;;;;7.18;5.60;;;22.90;75.90;;;;;;5050145;28;20471;-69
2023/07/24 09:50:54;;;;;;;8.02;5.93;;;23.00;75.90;;;;;;5045225;28;20021;-69
2023/07/24 09:53:55;;;;;;;6.60;5.90;;;22.90;75.10;;;;;;5039998;28;20063;-69
2023/07/24 09:56:22;;;;;;;8.13;6.30;;;22.70;74.60;;;;;;4994889;28;20061;-69
2023/07/24 09:58:49;;;;;;;6.40;5.43;;;22.70;74.60;;;;;;5048608;28;20032;-68
2023/07/24 10:01:16;;;;;;;6.00;5.10;;;22.60;74.90;;;;;;5048500;28;20083;-69
2023/07/24 10:03:49;;;;;;;6.72;5.57;;;22.60;75.10;;;;;;5045053;28;20045;-69
2023/07/24 10:06:16;;;;;;;6.35;5.55;;;22.60;74.60;;;;;;5048745;28;20028;-69
2023/07/24 10:08:42;;;;;;;7.47;6.00;;;22.60;74.20;;;;;;5046498;28;20108;-68
2023/07/24 10:11:12;;;;;;;8.38;6.68;;;22.50;74.00;;;;;;5047095;28;20079;-68
2023/07/24 10:13:38;;;;;;;6.10;5.47;;;22.50;73.30;;;;;;5048243;28;20539;-69
2023/07/24 10:16:06;;;;;;;6.68;5.20;;;22.40;73.70;;;;;;5032698;28;20063;-69
2023/07/24 10:18:33;;;;;;;6.03;4.88;;;22.20;73.80;;;;;;5048003;28;20028;-68
2023/07/24 10:21:07;;;;;;;5.97;4.68;;;22.10;74.30;;;;;;5048332;28;20461;-69
2023/07/24 10:23:43;;;;;;;6.07;4.45;;;22.00;74.80;;;;;;5048058;28;20029;-69
2023/07/24 10:26:09;;;;;;;6.25;5.20;;;22.10;75.30;;;;;;5048116;28;20498;-68
2023/07/24 10:28:39;;;;;;;7.18;5.75;;;22.20;75.40;;;;;;5048550;28;20112;-69
2023/07/24 10:31:08;;;;;;;7.40;5.80;;;22.20;74.80;;;;;;5047820;28;20040;-69
2023/07/24 10:33:40;;;;;;;6.38;5.05;;;22.10;74.70;;;;;;5047637;28;20100;-69
2023/07/24 10:36:10;;;;;;;5.82;4.82;;;22.10;74.90;;;;;;5048749;28;20094;-69
2023/07/24 10:38:41;;;;;;;6.38;5.32;;;22.10;75.00;;;;;;5048922;28;20109;-69
2023/07/24 10:41:08;;;;;;;7.43;6.17;;;22.20;74.80;;;;;;5048013;28;20029;-68
2023/07/24 10:43:48;;;;;;;6.60;5.90;;;22.20;74.60;;;;;;5049026;28;20029;-69
2023/07/24 10:46:14;;;;;;;7.80;6.38;;;22.20;74.40;;;;;;5049198;28;20033;-68
2023/07/24 10:48:47;;;;;;;6.97;5.68;;;22.20;74.50;;;;;;5051920;28;20024;-68
2023/07/24 10:51:16;;;;;;;7.75;6.07;;;22.20;74.60;;;;;;5047864;28;20025;-68
2023/07/24 10:53:49;;;;;;;7.70;5.82;;;22.10;74.70;;;;;;5050108;28;20101;-68
2023/07/24 10:56:16;;;;;;;9.88;6.30;;;22.20;74.90;;;;;;5048538;28;20083;-69
2023/07/24 10:58:42;;;;;;;9.65;6.18;;;22.10;74.90;;;;;;5052388;28;20372;-69
2023/07/24 11:01:10;;;;;;;7.10;5.32;;;22.10;75.10;;;;;;5051488;28;20045;-68
2023/07/24 11:03:36;;;;;;;6.43;5.28;;;22.10;75.10;;;;;;5050062;28;20409;-68
2023/07/24 11:06:03;;;;;;;6.90;5.38;;;22.20;75.30;;;;;;5051867;28;20025;-68
2023/07/24 11:08:29;;;;;;;7.35;5.05;;;22.10;74.90;;;;;;5053345;28;20483;-68
2023/07/24 11:10:57;;;;;;;6.38;4.85;;;22.10;74.70;;;;;;5054970;28;20032;-68
2023/07/24 11:13:27;;;;;;;5.22;4.70;;;22.10;74.60;;;;;;5051168;28;20017;-68
2023/07/24 11:15:53;;;;;;;6.03;4.50;;;22.10;74.50;;;;;;5051684;28;20029;-68
2023/07/24 11:18:22;;;;;;;6.00;5.10;;;22.20;74.30;;;;;;5054761;28;20517;-68
2023/07/24 11:20:52;;;;;;;5.35;4.70;;;22.20;74.20;;;;;;5051078;28;20070;-68
2023/07/24 11:23:18;;;;;;;8.13;4.53;;;22.30;73.70;;;;;;5055306;28;20298;-68
2023/07/24 11:25:45;;;;;;;7.35;5.35;;;22.40;73.60;;;;;;5033146;28;20021;-68
2023/07/24 11:28:12;;;;;;;7.28;4.90;;;22.40;72.90;;;;;;5051028;28;20120;-68
2023/07/24 11:30:38;;;;;;;7.18;5.05;;;22.40;72.80;;;;;;5033081;28;20021;-68
2023/07/24 11:33:07;;;;;;;7.45;6.00;;;22.40;72.60;;;;;;5053644;28;20598;-68
2023/07/24 11:35:35;;;;;;;8.65;5.90;;;22.40;72.50;;;;;;5050751;28;20021;-68
2023/07/24 11:38:01;;;;;;;5.05;4.18;;;22.30;72.50;;;;;;5053510;28;20103;-68
2023/07/24 11:40:35;;;;;;;5.82;4.53;;;22.40;73.00;;;;;;5053888;28;20162;-68
2023/07/24 11:43:02;;;;;;;6.38;5.15;;;22.40;72.90;;;;;;5051084;28;20025;-68
2023/07/24 11:45:29;;;;;;;7.35;5.13;;;22.30;72.60;;;;;;5053961;28;20414;-68
2023/07/24 11:47:56;;;;;;;7.53;5.43;;;22.30;72.60;;;;;;5051861;28;20025;-68
2023/07/24 11:50:22;;;;;;;6.90;5.15;;;22.30;72.20;;;;;;5048867;28;20032;-69
2023/07/24 11:52:50;;;;;;;8.27;6.00;;;22.30;72.50;;;;;;5050145;28;20021;-68
2023/07/24 11:55:29;;;;;;;7.15;5.20;;;22.40;72.30;;;;;;5051623;28;20052;-68
2023/07/24 11:58:03;;;;;;;6.22;4.80;;;22.50;72.20;;;;;;5050169;28;20043;-68
2023/07/24 12:00:33;;;;;;;6.90;4.40;;;22.60;72.10;;;;;;5054121;28;20487;-69
2023/07/24 12:03:04;;;;;;;6.85;4.90;;;22.70;72.10;;;;;;5050284;28;20041;-68
2023/07/24 12:05:36;;;;;;;8.02;5.82;;;22.90;72.00;;;;;;5046381;28;20441;-68
2023/07/24 12:08:02;;;;;;;7.45;5.85;;;23.00;71.60;;;;;;5052402;28;20025;-68
2023/07/24 12:10:28;;;;;;;6.43;5.25;;;23.10;71.00;;;;;;5052839;28;20077;-68
2023/07/24 12:12:54;;;;;;;5.70;4.90;;;23.20;70.70;;;;;;5050322;28;20026;-68
2023/07/24 12:15:20;;;;;;;6.03;4.75;;;23.30;70.50;;;;;;5053056;28;20096;-68
2023/07/24 12:17:46;;;;;;;7.03;5.57;;;23.50;70.30;;;;;;5050036;28;20096;-68
2023/07/24 12:20:11;;;;;;;6.43;5.07;;;23.70;69.50;;;;;;5050497;28;20025;-69
2023/07/24 12:22:38;;;;;;;7.13;5.90;;;23.70;68.70;;;;;;5050103;28;20476;-68
2023/07/24 12:25:05;;;;;;;5.72;4.50;;;23.90;67.90;;;;;;5032787;28;20017;-68
2023/07/24 12:27:32;;;;;;;6.80;4.70;;;24.00;67.80;;;;;;5049833;28;20090;-68
2023/07/24 12:29:58;;;;;;;6.22;4.88;;;24.30;67.50;;;;;;5050768;28;20037;-68
2023/07/24 12:32:24;;;;;;;6.07;4.50;;;24.40;66.60;;;;;;5051549;28;20099;-68
2023/07/24 12:34:50;;;;;;;6.25;4.22;;;24.30;66.40;;;;;;5049915;28;20028;-68
2023/07/24 12:37:17;;;;;;;7.45;5.38;;;24.30;66.70;;;;;;5051385;28;20025;-68
2023/07/24 12:39:47;;;;;;;5.95;4.43;;;24.30;65.90;;;;;;5049216;28;20032;-68
2023/07/24 12:42:14;;;;;;;5.30;3.88;;;24.10;66.50;;;;;;5051904;28;20029;-68